sensor_id;sensor_type;location;lat;lon;timestamp;pressure;altitude;pressure_sealevel;temperature;humidity
28626;BME280;18905;42.668;23.364;2023-12-20T00:01:26;95340.63;;;0.85;100.00
28626;BME280;18905;42.668;23.364;2023-12-20T00:03:51;95357.88;;;0.83;100.00
28626;BME280;18905;42.668;23.364;2023-12-20T00:06:17;95365.66;;;0.89;100.00
28626;BME280;18905;42.668;23.364;2023-12-20T00:08:42;95358.38;;;0.80;100.00
28626;BME280;18905;42.668;23.364;2023-12-20T00:11:09;95489.84;;;1.68;100.00
28626;BME280;18905;42.668;23.364;2023-12-20T00:13:34;95394.31;;;1.09;100.00
28626;BME280;18905;42.668;23.364;2023-12-20T00:15:59;95453.28;;;1.54;100.00
28626;BME280;18905;42.668;23.364;2023-12-20T00:18:25;95485.38;;;1.74;100.00
28626;BME280;18905;42.668;23.364;2023-12-20T00:20:50;95390.66;;;1.15;100.00
28626;BME280;18905;42.668;23.364;2023-12-20T00:23:16;95477.41;;;1.74;100.00
28626;BME280;18905;42.668;23.364;2023-12-20T00:25:41;95418.03;;;1.42;100.00
28626;BME280;18905;42.668;23.364;2023-12-20T00:28:07;95434.03;;;1.47;100.00
28626;BME280;18905;42.668;23.364;2023-12-20T00:30:32;95403.22;;;0.98;100.00
28626;BME280;18905;42.668;23.364;2023-12-20T00:32:57;95351.91;;;0.71;100.00
28626;BME280;18905;42.668;23.364;2023-12-20T00:35:23;95364.22;;;0.77;100.00
28626;BME280;18905;42.668;23.364;2023-12-20T00:37:49;95318.75;;;0.52;100.00
28626;BME280;18905;42.668;23.364;2023-12-20T00:40:14;95395.91;;;1.10;100.00
28626;BME280;18905;42.668;23.364;2023-12-20T00:42:39;95344.88;;;0.86;100.00
28626;BME280;18905;42.668;23.364;2023-12-20T00:45:05;95392.50;;;1.14;100.00
28626;BME280;18905;42.668;23.364;2023-12-20T00:47:31;95443.16;;;1.56;100.00
28626;BME280;18905;42.668;23.364;2023-12-20T00:49:57;95437.03;;;1.55;100.00
28626;BME280;18905;42.668;23.364;2023-12-20T00:52:22;95369.38;;;0.88;100.00
28626;BME280;18905;42.668;23.364;2023-12-20T00:54:48;95359.50;;;0.84;100.00
28626;BME280;18905;42.668;23.364;2023-12-20T00:57:14;95382.25;;;0.96;100.00
28626;BME280;18905;42.668;23.364;2023-12-20T00:59:39;95388.38;;;1.02;100.00
28626;BME280;18905;42.668;23.364;2023-12-20T01:02:04;95341.03;;;0.72;100.00
28626;BME280;18905;42.668;23.364;2023-12-20T01:04:30;95363.69;;;0.80;100.00
28626;BME280;18905;42.668;23.364;2023-12-20T01:06:55;95427.44;;;1.23;100.00
28626;BME280;18905;42.668;23.364;2023-12-20T01:09:21;95289.44;;;0.42;100.00
28626;BME280;18905;42.668;23.364;2023-12-20T01:11:49;95305.63;;;0.40;100.00
28626;BME280;18905;42.668;23.364;2023-12-20T01:14:14;95297.16;;;0.43;100.00
28626;BME280;18905;42.668;23.364;2023-12-20T01:16:40;95388.59;;;0.95;100.00
28626;BME280;18905;42.668;23.364;2023-12-20T01:19:05;95219.97;;;-0.42;100.00
28626;BME280;18905;42.668;23.364;2023-12-20T01:21:31;95271.31;;;-0.31;100.00
28626;BME280;18905;42.668;23.364;2023-12-20T01:23:56;95230.31;;;-1.33;100.00
28626;BME280;18905;42.668;23.364;2023-12-20T01:26:21;95266.66;;;-1.89;100.00
28626;BME280;18905;42.668;23.364;2023-12-20T01:28:47;95246.44;;;-1.95;100.00
28626;BME280;18905;42.668;23.364;2023-12-20T01:31:12;95291.53;;;-1.90;100.00
28626;BME280;18905;42.668;23.364;2023-12-20T01:33:38;95347.63;;;-1.77;100.00
28626;BME280;18905;42.668;23.364;2023-12-20T01:36:04;95245.28;;;-2.27;100.00
28626;BME280;18905;42.668;23.364;2023-12-20T01:38:29;95234.53;;;-2.09;100.00
28626;BME280;18905;42.668;23.364;2023-12-20T01:40:55;95316.53;;;-1.70;100.00
28626;BME280;18905;42.668;23.364;2023-12-20T01:43:20;95281.41;;;-2.33;100.00
28626;BME280;18905;42.668;23.364;2023-12-20T01:45:47;95291.22;;;-2.45;100.00
28626;BME280;18905;42.668;23.364;2023-12-20T01:48:14;95370.56;;;-1.82;100.00
28626;BME280;18905;42.668;23.364;2023-12-20T01:50:41;95371.63;;;-1.55;100.00
28626;BME280;18905;42.668;23.364;2023-12-20T01:53:09;95231.50;;;-2.41;100.00
28626;BME280;18905;42.668;23.364;2023-12-20T01:55:38;95309.19;;;-1.79;100.00
28626;BME280;18905;42.668;23.364;2023-12-20T01:58:05;95358.13;;;-1.26;100.00
28626;BME280;18905;42.668;23.364;2023-12-20T02:00:31;95352.09;;;-1.38;100.00
28626;BME280;18905;42.668;23.364;2023-12-20T02:02:57;95273.75;;;-1.78;100.00
28626;BME280;18905;42.668;23.364;2023-12-20T02:05:25;95347.38;;;-1.19;100.00
28626;BME280;18905;42.668;23.364;2023-12-20T02:07:53;95276.28;;;-1.83;100.00
28626;BME280;18905;42.668;23.364;2023-12-20T02:10:18;95228.81;;;-2.69;100.00
28626;BME280;18905;42.668;23.364;2023-12-20T02:12:43;95166.16;;;-3.08;100.00
28626;BME280;18905;42.668;23.364;2023-12-20T02:15:09;95236.75;;;-2.69;100.00
28626;BME280;18905;42.668;23.364;2023-12-20T02:17:36;95347.56;;;-2.05;100.00
28626;BME280;18905;42.668;23.364;2023-12-20T02:20:01;95357.28;;;-2.22;100.00
28626;BME280;18905;42.668;23.364;2023-12-20T02:22:27;95222.28;;;-2.89;100.00
28626;BME280;18905;42.668;23.364;2023-12-20T02:24:53;95154.34;;;-3.28;100.00
28626;BME280;18905;42.668;23.364;2023-12-20T02:27:19;95314.41;;;-2.35;100.00
28626;BME280;18905;42.668;23.364;2023-12-20T02:29:47;95193.63;;;-3.20;100.00
28626;BME280;18905;42.668;23.364;2023-12-20T02:32:12;95196.13;;;-3.02;100.00
28626;BME280;18905;42.668;23.364;2023-12-20T02:34:38;95329.44;;;-2.36;100.00
28626;BME280;18905;42.668;23.364;2023-12-20T02:37:03;95267.78;;;-2.64;100.00
28626;BME280;18905;42.668;23.364;2023-12-20T02:39:28;95154.25;;;-3.45;100.00
28626;BME280;18905;42.668;23.364;2023-12-20T02:41:54;95197.38;;;-3.28;100.00
28626;BME280;18905;42.668;23.364;2023-12-20T02:44:19;95326.38;;;-2.44;100.00
28626;BME280;18905;42.668;23.364;2023-12-20T02:46:44;95291.66;;;-2.48;100.00
28626;BME280;18905;42.668;23.364;2023-12-20T02:49:10;95313.06;;;-2.61;100.00
28626;BME280;18905;42.668;23.364;2023-12-20T02:51:35;95224.28;;;-3.19;100.00
28626;BME280;18905;42.668;23.364;2023-12-20T02:54:03;95292.13;;;-2.51;100.00
28626;BME280;18905;42.668;23.364;2023-12-20T02:56:29;95288.88;;;-2.30;100.00
28626;BME280;18905;42.668;23.364;2023-12-20T02:58:54;95240.41;;;-2.58;100.00
28626;BME280;18905;42.668;23.364;2023-12-20T03:01:20;95204.84;;;-2.90;100.00
28626;BME280;18905;42.668;23.364;2023-12-20T03:03:45;95200.91;;;-2.76;100.00
28626;BME280;18905;42.668;23.364;2023-12-20T03:06:11;95209.50;;;-2.58;100.00
28626;BME280;18905;42.668;23.364;2023-12-20T03:08:36;95174.44;;;-3.16;100.00
28626;BME280;18905;42.668;23.364;2023-12-20T03:11:02;95319.97;;;-2.09;100.00
28626;BME280;18905;42.668;23.364;2023-12-20T03:13:27;95204.66;;;-2.61;100.00
28626;BME280;18905;42.668;23.364;2023-12-20T03:15:53;95181.69;;;-2.60;100.00
28626;BME280;18905;42.668;23.364;2023-12-20T03:18:18;95290.59;;;-1.96;100.00
28626;BME280;18905;42.668;23.364;2023-12-20T03:20:43;95200.16;;;-2.49;100.00
28626;BME280;18905;42.668;23.364;2023-12-20T03:23:09;95239.56;;;-2.47;100.00
28626;BME280;18905;42.668;23.364;2023-12-20T03:25:34;95253.00;;;-2.26;100.00
28626;BME280;18905;42.668;23.364;2023-12-20T03:28:00;95197.78;;;-2.62;100.00
28626;BME280;18905;42.668;23.364;2023-12-20T03:30:25;95152.94;;;-2.57;100.00
28626;BME280;18905;42.668;23.364;2023-12-20T03:32:51;95166.22;;;-2.80;100.00
28626;BME280;18905;42.668;23.364;2023-12-20T03:35:16;95224.50;;;-2.35;100.00
28626;BME280;18905;42.668;23.364;2023-12-20T03:37:42;95207.63;;;-2.46;100.00
28626;BME280;18905;42.668;23.364;2023-12-20T03:40:07;95240.47;;;-2.02;100.00
28626;BME280;18905;42.668;23.364;2023-12-20T03:42:33;95292.81;;;-1.48;100.00
28626;BME280;18905;42.668;23.364;2023-12-20T03:44:58;95188.38;;;-2.02;100.00
28626;BME280;18905;42.668;23.364;2023-12-20T03:47:23;95230.84;;;-1.64;100.00
28626;BME280;18905;42.668;23.364;2023-12-20T03:49:49;95156.03;;;-2.04;100.00
28626;BME280;18905;42.668;23.364;2023-12-20T03:52:14;95207.03;;;-1.64;100.00
28626;BME280;18905;42.668;23.364;2023-12-20T03:54:40;95270.28;;;-1.18;100.00
28626;BME280;18905;42.668;23.364;2023-12-20T03:57:06;95208.41;;;-1.45;100.00
28626;BME280;18905;42.668;23.364;2023-12-20T03:59:36;95280.19;;;-0.97;100.00
28626;BME280;18905;42.668;23.364;2023-12-20T04:02:01;95237.72;;;-1.18;100.00
28626;BME280;18905;42.668;23.364;2023-12-20T04:04:27;95257.94;;;-1.29;100.00
28626;BME280;18905;42.668;23.364;2023-12-20T04:06:52;95173.88;;;-1.83;100.00
28626;BME280;18905;42.668;23.364;2023-12-20T04:09:18;95221.63;;;-1.61;100.00
28626;BME280;18905;42.668;23.364;2023-12-20T04:11:43;95148.84;;;-1.92;100.00
28626;BME280;18905;42.668;23.364;2023-12-20T04:14:08;95129.56;;;-2.04;100.00
28626;BME280;18905;42.668;23.364;2023-12-20T04:16:35;95136.72;;;-2.04;100.00
28626;BME280;18905;42.668;23.364;2023-12-20T04:19:00;95158.66;;;-1.76;100.00
28626;BME280;18905;42.668;23.364;2023-12-20T04:21:26;95238.91;;;-1.87;100.00
28626;BME280;18905;42.668;23.364;2023-12-20T04:23:51;95270.84;;;-1.77;100.00
28626;BME280;18905;42.668;23.364;2023-12-20T04:26:17;95166.19;;;-2.29;100.00
28626;BME280;18905;42.668;23.364;2023-12-20T04:28:42;95161.53;;;-2.50;100.00
28626;BME280;18905;42.668;23.364;2023-12-20T04:31:08;95179.13;;;-2.83;100.00
28626;BME280;18905;42.668;23.364;2023-12-20T04:33:33;95090.19;;;-3.29;100.00
28626;BME280;18905;42.668;23.364;2023-12-20T04:35:59;95098.19;;;-3.24;100.00
28626;BME280;18905;42.668;23.364;2023-12-20T04:38:25;95091.34;;;-3.48;100.00
28626;BME280;18905;42.668;23.364;2023-12-20T04:40:51;95193.47;;;-2.91;100.00
28626;BME280;18905;42.668;23.364;2023-12-20T04:43:16;95043.44;;;-3.79;100.00
28626;BME280;18905;42.668;23.364;2023-12-20T04:45:42;95165.22;;;-3.02;100.00
28626;BME280;18905;42.668;23.364;2023-12-20T04:48:07;95124.03;;;-3.26;100.00
28626;BME280;18905;42.668;23.364;2023-12-20T04:50:33;95135.38;;;-3.14;100.00
28626;BME280;18905;42.668;23.364;2023-12-20T04:52:58;95172.56;;;-2.92;100.00
28626;BME280;18905;42.668;23.364;2023-12-20T04:55:24;95158.13;;;-3.01;100.00
28626;BME280;18905;42.668;23.364;2023-12-20T04:57:49;95151.72;;;-3.17;100.00
28626;BME280;18905;42.668;23.364;2023-12-20T05:00:15;95098.00;;;-3.34;100.00
28626;BME280;18905;42.668;23.364;2023-12-20T05:02:40;95219.84;;;-1.72;100.00
28626;BME280;18905;42.668;23.364;2023-12-20T05:05:06;95177.22;;;-1.05;100.00
28626;BME280;18905;42.668;23.364;2023-12-20T05:07:32;95234.31;;;-1.47;100.00
28626;BME280;18905;42.668;23.364;2023-12-20T05:09:58;95192.50;;;-0.52;100.00
28626;BME280;18905;42.668;23.364;2023-12-20T05:12:24;95092.59;;;-1.11;100.00
28626;BME280;18905;42.668;23.364;2023-12-20T05:14:49;95085.16;;;-1.52;100.00
28626;BME280;18905;42.668;23.364;2023-12-20T05:17:15;95140.13;;;-1.59;100.00
28626;BME280;18905;42.668;23.364;2023-12-20T05:19:40;95234.16;;;-1.07;100.00
28626;BME280;18905;42.668;23.364;2023-12-20T05:22:05;95226.16;;;-1.29;100.00
28626;BME280;18905;42.668;23.364;2023-12-20T05:24:31;95178.94;;;-1.32;100.00
28626;BME280;18905;42.668;23.364;2023-12-20T05:26:56;95124.41;;;-1.82;100.00
28626;BME280;18905;42.668;23.364;2023-12-20T05:29:21;95134.31;;;-2.06;100.00
28626;BME280;18905;42.668;23.364;2023-12-20T05:31:47;95214.19;;;-1.48;100.00
28626;BME280;18905;42.668;23.364;2023-12-20T05:34:12;95111.47;;;-2.12;100.00
28626;BME280;18905;42.668;23.364;2023-12-20T05:36:37;95209.66;;;-1.64;100.00
28626;BME280;18905;42.668;23.364;2023-12-20T05:39:04;95193.22;;;-1.66;100.00
28626;BME280;18905;42.668;23.364;2023-12-20T05:41:30;95122.69;;;-2.05;100.00
28626;BME280;18905;42.668;23.364;2023-12-20T05:43:56;95211.53;;;-1.15;100.00
28626;BME280;18905;42.668;23.364;2023-12-20T05:46:23;95162.75;;;-1.35;100.00
28626;BME280;18905;42.668;23.364;2023-12-20T05:48:48;95112.50;;;-1.47;100.00
28626;BME280;18905;42.668;23.364;2023-12-20T05:51:14;95079.78;;;-1.57;100.00
28626;BME280;18905;42.668;23.364;2023-12-20T05:53:39;95134.66;;;-0.98;100.00
28626;BME280;18905;42.668;23.364;2023-12-20T05:56:05;95052.69;;;-1.64;100.00
28626;BME280;18905;42.668;23.364;2023-12-20T05:58:32;95116.44;;;-1.11;100.00
28626;BME280;18905;42.668;23.364;2023-12-20T06:00:57;95107.56;;;-1.22;100.00
28626;BME280;18905;42.668;23.364;2023-12-20T06:03:23;95115.28;;;-0.99;100.00
28626;BME280;18905;42.668;23.364;2023-12-20T06:05:48;95015.06;;;-1.45;100.00
28626;BME280;18905;42.668;23.364;2023-12-20T06:08:14;95189.50;;;-0.82;100.00
28626;BME280;18905;42.668;23.364;2023-12-20T06:10:39;95183.84;;;-0.86;100.00
28626;BME280;18905;42.668;23.364;2023-12-20T06:13:05;95116.91;;;-0.98;100.00
28626;BME280;18905;42.668;23.364;2023-12-20T06:15:32;95165.22;;;-0.53;100.00
28626;BME280;18905;42.668;23.364;2023-12-20T06:17:57;95161.19;;;-0.34;100.00
28626;BME280;18905;42.668;23.364;2023-12-20T06:20:23;95123.81;;;-0.54;100.00
28626;BME280;18905;42.668;23.364;2023-12-20T06:22:48;95146.38;;;-0.30;100.00
28626;BME280;18905;42.668;23.364;2023-12-20T06:25:13;95133.94;;;-0.51;100.00
28626;BME280;18905;42.668;23.364;2023-12-20T06:27:39;95121.72;;;-0.52;100.00
28626;BME280;18905;42.668;23.364;2023-12-20T06:30:06;95095.50;;;-0.48;100.00
28626;BME280;18905;42.668;23.364;2023-12-20T06:32:32;95179.16;;;0.08;100.00
28626;BME280;18905;42.668;23.364;2023-12-20T06:34:59;95109.81;;;-0.23;100.00
28626;BME280;18905;42.668;23.364;2023-12-20T06:37:24;95086.28;;;-0.41;100.00
28626;BME280;18905;42.668;23.364;2023-12-20T06:39:50;95119.75;;;-0.13;100.00
28626;BME280;18905;42.668;23.364;2023-12-20T06:42:15;95100.13;;;-0.82;100.00
28626;BME280;18905;42.668;23.364;2023-12-20T06:44:41;95067.47;;;-0.66;100.00
28626;BME280;18905;42.668;23.364;2023-12-20T06:47:07;95177.28;;;-0.40;100.00
28626;BME280;18905;42.668;23.364;2023-12-20T06:49:33;95171.00;;;-0.08;100.00
28626;BME280;18905;42.668;23.364;2023-12-20T06:51:58;95182.84;;;-0.63;100.00
28626;BME280;18905;42.668;23.364;2023-12-20T06:54:24;95165.63;;;-0.39;100.00
28626;BME280;18905;42.668;23.364;2023-12-20T06:56:49;95032.22;;;-0.88;100.00
28626;BME280;18905;42.668;23.364;2023-12-20T06:59:15;95161.59;;;0.06;100.00
28626;BME280;18905;42.668;23.364;2023-12-20T07:01:41;94992.03;;;-0.80;100.00
28626;BME280;18905;42.668;23.364;2023-12-20T07:04:06;95037.63;;;-0.51;100.00
28626;BME280;18905;42.668;23.364;2023-12-20T07:06:32;95083.47;;;-0.03;100.00
28626;BME280;18905;42.668;23.364;2023-12-20T07:08:57;95093.38;;;-0.25;100.00
28626;BME280;18905;42.668;23.364;2023-12-20T07:11:22;95060.97;;;-0.27;100.00
28626;BME280;18905;42.668;23.364;2023-12-20T07:13:48;95104.81;;;0.08;100.00
28626;BME280;18905;42.668;23.364;2023-12-20T07:16:14;95053.84;;;0.10;100.00
28626;BME280;18905;42.668;23.364;2023-12-20T07:18:40;95153.41;;;1.08;100.00
28626;BME280;18905;42.668;23.364;2023-12-20T07:21:05;94999.41;;;0.08;100.00
28626;BME280;18905;42.668;23.364;2023-12-20T07:23:33;95048.38;;;0.59;100.00
28626;BME280;18905;42.668;23.364;2023-12-20T07:25:58;95066.56;;;0.82;100.00
28626;BME280;18905;42.668;23.364;2023-12-20T07:28:23;95113.22;;;1.09;100.00
28626;BME280;18905;42.668;23.364;2023-12-20T07:30:50;95063.25;;;0.65;100.00
28626;BME280;18905;42.668;23.364;2023-12-20T07:33:15;95038.03;;;0.67;100.00
28626;BME280;18905;42.668;23.364;2023-12-20T07:35:40;95071.31;;;0.33;100.00
28626;BME280;18905;42.668;23.364;2023-12-20T07:38:06;94995.09;;;-0.88;100.00
28626;BME280;18905;42.668;23.364;2023-12-20T07:40:31;95021.25;;;-0.96;100.00
28626;BME280;18905;42.668;23.364;2023-12-20T07:42:57;95075.66;;;-0.67;100.00
28626;BME280;18905;42.668;23.364;2023-12-20T07:45:23;95015.22;;;-0.92;100.00
28626;BME280;18905;42.668;23.364;2023-12-20T07:47:48;95074.03;;;-0.47;100.00
28626;BME280;18905;42.668;23.364;2023-12-20T07:50:15;95149.56;;;-0.28;100.00
28626;BME280;18905;42.668;23.364;2023-12-20T07:52:40;95022.41;;;-1.09;100.00
28626;BME280;18905;42.668;23.364;2023-12-20T07:55:06;95067.47;;;-0.66;100.00
28626;BME280;18905;42.668;23.364;2023-12-20T07:57:32;95065.34;;;-0.64;100.00
28626;BME280;18905;42.668;23.364;2023-12-20T07:59:57;95096.16;;;-0.36;100.00
28626;BME280;18905;42.668;23.364;2023-12-20T08:02:22;95037.59;;;-0.56;100.00
28626;BME280;18905;42.668;23.364;2023-12-20T08:04:48;95043.25;;;-0.48;100.00
28626;BME280;18905;42.668;23.364;2023-12-20T08:07:13;95036.19;;;-0.64;100.00
28626;BME280;18905;42.668;23.364;2023-12-20T08:09:39;95113.19;;;-0.06;100.00
28626;BME280;18905;42.668;23.364;2023-12-20T08:12:05;95006.44;;;-0.71;100.00
28626;BME280;18905;42.668;23.364;2023-12-20T08:14:30;95119.03;;;0.23;100.00
28626;BME280;18905;42.668;23.364;2023-12-20T08:16:56;95119.72;;;0.13;100.00
28626;BME280;18905;42.668;23.364;2023-12-20T08:19:22;94978.25;;;-0.77;100.00
28626;BME280;18905;42.668;23.364;2023-12-20T08:21:47;95039.88;;;-0.38;100.00
28626;BME280;18905;42.668;23.364;2023-12-20T08:24:12;95037.03;;;-0.32;100.00
28626;BME280;18905;42.668;23.364;2023-12-20T08:26:38;94985.63;;;-1.27;100.00
28626;BME280;18905;42.668;23.364;2023-12-20T08:29:03;95092.88;;;-0.17;100.00
28626;BME280;18905;42.668;23.364;2023-12-20T08:31:29;95068.69;;;0.06;100.00
28626;BME280;18905;42.668;23.364;2023-12-20T08:33:54;94961.34;;;-0.71;100.00
28626;BME280;18905;42.668;23.364;2023-12-20T08:36:21;95107.22;;;0.41;100.00
28626;BME280;18905;42.668;23.364;2023-12-20T08:38:47;95048.13;;;0.23;100.00
28626;BME280;18905;42.668;23.364;2023-12-20T08:41:13;95035.41;;;-0.06;100.00
28626;BME280;18905;42.668;23.364;2023-12-20T08:43:38;95074.47;;;-0.02;100.00
28626;BME280;18905;42.668;23.364;2023-12-20T08:46:07;94990.59;;;-0.34;100.00
28626;BME280;18905;42.668;23.364;2023-12-20T08:48:34;94986.38;;;-0.30;100.00
28626;BME280;18905;42.668;23.364;2023-12-20T08:51:00;95048.13;;;0.23;100.00
28626;BME280;18905;42.668;23.364;2023-12-20T08:53:25;95056.16;;;-0.30;100.00
28626;BME280;18905;42.668;23.364;2023-12-20T08:55:51;94999.31;;;-0.39;100.00
28626;BME280;18905;42.668;23.364;2023-12-20T08:58:16;95015.84;;;-0.27;100.00
28626;BME280;18905;42.668;23.364;2023-12-20T09:00:42;95081.72;;;0.40;100.00
28626;BME280;18905;42.668;23.364;2023-12-20T09:03:07;94974.94;;;0.01;100.00
28626;BME280;18905;42.668;23.364;2023-12-20T09:05:33;94935.41;;;-0.64;100.00
28626;BME280;18905;42.668;23.364;2023-12-20T09:07:58;95001.31;;;-0.19;100.00
28626;BME280;18905;42.668;23.364;2023-12-20T09:10:24;95007.13;;;0.09;100.00
28626;BME280;18905;42.668;23.364;2023-12-20T09:12:50;94964.72;;;-0.17;100.00
28626;BME280;18905;42.668;23.364;2023-12-20T09:15:16;94990.84;;;-0.04;100.00
28626;BME280;18905;42.668;23.364;2023-12-20T09:17:41;94875.53;;;-0.60;100.00
28626;BME280;18905;42.668;23.364;2023-12-20T09:20:07;94875.75;;;-0.66;100.00
28626;BME280;18905;42.668;23.364;2023-12-20T09:22:34;94899.53;;;-0.40;100.00
28626;BME280;18905;42.668;23.364;2023-12-20T09:24:59;94986.00;;;0.29;100.00
28626;BME280;18905;42.668;23.364;2023-12-20T09:27:25;95015.38;;;0.55;100.00
28626;BME280;18905;42.668;23.364;2023-12-20T09:29:50;94951.94;;;0.12;100.00
28626;BME280;18905;42.668;23.364;2023-12-20T09:32:16;94933.56;;;0.05;100.00
28626;BME280;18905;42.668;23.364;2023-12-20T09:34:41;94970.41;;;0.38;100.00
28626;BME280;18905;42.668;23.364;2023-12-20T09:37:07;94908.38;;;0.08;100.00
28626;BME280;18905;42.668;23.364;2023-12-20T09:39:33;94870.81;;;-0.11;100.00
28626;BME280;18905;42.668;23.364;2023-12-20T09:42:03;94964.97;;;0.70;100.00
28626;BME280;18905;42.668;23.364;2023-12-20T09:44:29;94894.94;;;0.29;100.00
28626;BME280;18905;42.668;23.364;2023-12-20T09:46:56;94902.13;;;0.38;100.00
28626;BME280;18905;42.668;23.364;2023-12-20T09:49:22;94843.53;;;-0.07;100.00
28626;BME280;18905;42.668;23.364;2023-12-20T09:51:50;94917.53;;;0.37;100.00
28626;BME280;18905;42.668;23.364;2023-12-20T09:54:17;94954.09;;;0.76;100.00
28626;BME280;18905;42.668;23.364;2023-12-20T09:56:44;94837.25;;;0.19;100.00
28626;BME280;18905;42.668;23.364;2023-12-20T09:59:09;94875.94;;;0.67;100.00
28626;BME280;18905;42.668;23.364;2023-12-20T10:01:35;94956.59;;;1.03;100.00
28626;BME280;18905;42.668;23.364;2023-12-20T10:04:05;94938.56;;;1.30;100.00
28626;BME280;18905;42.668;23.364;2023-12-20T10:06:36;94914.94;;;1.48;100.00
28626;BME280;18905;42.668;23.364;2023-12-20T10:09:02;94902.69;;;1.62;100.00
28626;BME280;18905;42.668;23.364;2023-12-20T10:11:29;94800.25;;;1.35;100.00
28626;BME280;18905;42.668;23.364;2023-12-20T10:13:59;94904.47;;;2.32;100.00
28626;BME280;18905;42.668;23.364;2023-12-20T10:16:26;94838.22;;;1.95;100.00
28626;BME280;18905;42.668;23.364;2023-12-20T10:18:53;94913.47;;;2.51;100.00
28626;BME280;18905;42.668;23.364;2023-12-20T10:21:18;94879.63;;;2.46;100.00
28626;BME280;18905;42.668;23.364;2023-12-20T10:23:45;94849.38;;;2.76;100.00
28626;BME280;18905;42.668;23.364;2023-12-20T10:26:19;94827.59;;;3.07;100.00
28626;BME280;18905;42.668;23.364;2023-12-20T10:28:44;94823.19;;;3.26;100.00
28626;BME280;18905;42.668;23.364;2023-12-20T10:31:10;94852.50;;;3.65;100.00
28626;BME280;18905;42.668;23.364;2023-12-20T10:33:35;94715.47;;;2.84;100.00
28626;BME280;18905;42.668;23.364;2023-12-20T10:36:00;94845.03;;;3.95;100.00
28626;BME280;18905;42.668;23.364;2023-12-20T10:38:26;94792.44;;;3.34;100.00
28626;BME280;18905;42.668;23.364;2023-12-20T10:40:56;94850.41;;;3.90;100.00
28626;BME280;18905;42.668;23.364;2023-12-20T10:43:24;94723.94;;;2.96;100.00
28626;BME280;18905;42.668;23.364;2023-12-20T10:45:51;94838.41;;;3.59;100.00
28626;BME280;18905;42.668;23.364;2023-12-20T10:48:18;94697.19;;;3.06;100.00
28626;BME280;18905;42.668;23.364;2023-12-20T10:50:44;94831.06;;;4.03;100.00
28626;BME280;18905;42.668;23.364;2023-12-20T10:53:10;94719.81;;;3.89;100.00
28626;BME280;18905;42.668;23.364;2023-12-20T10:55:37;94808.97;;;3.93;100.00
28626;BME280;18905;42.668;23.364;2023-12-20T10:58:09;94793.72;;;3.98;100.00
28626;BME280;18905;42.668;23.364;2023-12-20T11:00:39;94768.94;;;3.64;100.00
28626;BME280;18905;42.668;23.364;2023-12-20T11:03:08;94706.56;;;3.32;100.00
28626;BME280;18905;42.668;23.364;2023-12-20T11:08:28;94676.16;;;2.99;100.00
28626;BME280;18905;42.668;23.364;2023-12-20T11:13:31;94724.53;;;3.45;100.00
28626;BME280;18905;42.668;23.364;2023-12-20T11:15:58;94812.22;;;3.90;100.00
28626;BME280;18905;42.668;23.364;2023-12-20T11:18:30;94768.78;;;3.22;100.00
28626;BME280;18905;42.668;23.364;2023-12-20T11:21:01;94698.59;;;2.60;100.00
28626;BME280;18905;42.668;23.364;2023-12-20T11:23:29;94659.13;;;2.62;100.00
28626;BME280;18905;42.668;23.364;2023-12-20T11:25:56;94671.06;;;3.03;100.00
28626;BME280;18905;42.668;23.364;2023-12-20T11:28:25;94777.81;;;3.60;100.00
28626;BME280;18905;42.668;23.364;2023-12-20T11:30:52;94692.44;;;2.98;100.00
28626;BME280;18905;42.668;23.364;2023-12-20T11:33:22;94702.41;;;3.44;100.00
28626;BME280;18905;42.668;23.364;2023-12-20T11:35:48;94616.97;;;2.69;100.00
28626;BME280;18905;42.668;23.364;2023-12-20T11:38:14;94728.53;;;3.19;100.00
28626;BME280;18905;42.668;23.364;2023-12-20T11:40:42;94741.66;;;3.10;100.00
28626;BME280;18905;42.668;23.364;2023-12-20T11:43:08;94705.63;;;2.84;100.00
28626;BME280;18905;42.668;23.364;2023-12-20T11:45:33;94746.69;;;3.17;100.00
28626;BME280;18905;42.668;23.364;2023-12-20T11:48:01;94604.63;;;2.11;100.00
28626;BME280;18905;42.668;23.364;2023-12-20T11:50:27;94681.88;;;2.49;100.00
28626;BME280;18905;42.668;23.364;2023-12-20T11:52:53;94624.22;;;1.86;100.00
28626;BME280;18905;42.668;23.364;2023-12-20T11:55:20;94667.00;;;2.00;100.00
28626;BME280;18905;42.668;23.364;2023-12-20T11:57:46;94721.59;;;2.51;100.00
28626;BME280;18905;42.668;23.364;2023-12-20T12:00:13;94642.53;;;2.36;100.00
28626;BME280;18905;42.668;23.364;2023-12-20T12:02:39;94618.22;;;2.48;100.00
28626;BME280;18905;42.668;23.364;2023-12-20T12:05:05;94586.59;;;2.36;100.00
28626;BME280;18905;42.668;23.364;2023-12-20T12:07:31;94568.25;;;2.30;100.00
28626;BME280;18905;42.668;23.364;2023-12-20T12:09:57;94636.47;;;3.21;100.00
28626;BME280;18905;42.668;23.364;2023-12-20T12:12:22;94681.66;;;3.65;100.00
28626;BME280;18905;42.668;23.364;2023-12-20T12:14:49;94624.56;;;3.37;100.00
28626;BME280;18905;42.668;23.364;2023-12-20T12:17:15;94683.91;;;6.10;100.00
28626;BME280;18905;42.668;23.364;2023-12-20T12:19:41;94679.06;;;7.49;100.00
28626;BME280;18905;42.668;23.364;2023-12-20T12:22:14;94632.63;;;8.44;100.00
28626;BME280;18905;42.668;23.364;2023-12-20T12:24:41;94644.53;;;7.65;100.00
28626;BME280;18905;42.668;23.364;2023-12-20T12:27:07;94634.13;;;7.72;100.00
28626;BME280;18905;42.668;23.364;2023-12-20T12:29:34;94608.22;;;6.27;100.00
28626;BME280;18905;42.668;23.364;2023-12-20T12:31:59;94533.88;;;5.56;100.00
28626;BME280;18905;42.668;23.364;2023-12-20T12:34:27;94567.41;;;5.27;100.00
28626;BME280;18905;42.668;23.364;2023-12-20T12:36:53;94570.78;;;5.05;100.00
28626;BME280;18905;42.668;23.364;2023-12-20T12:39:19;94659.88;;;5.78;100.00
28626;BME280;18905;42.668;23.364;2023-12-20T12:41:44;94531.81;;;4.99;100.00
28626;BME280;18905;42.668;23.364;2023-12-20T12:44:10;94585.91;;;4.96;100.00